KLSV/LSV METAR and TAF weather

Enter ICAO airport designator
Station Type Date Time Source
KLSV METAR 2019/05/25 08:55 UTC NOAA

KLSV 250855Z 35002KT 10SM FEW110 17/06 A2983 RMK A02A SLP077 WND DATA ESTMD T01650058 57007 $


Station Type Date Time Source
KLSV Decoded METAR 2019/05/25 08:55 UTC NOAA

Nellis Air Force Base, NV, United States (KLSV) 36-14N 115-02W
May 25, 2019 - 04:55 AM EDT / 2019.05.25 0855 UTC
Wind: from the N (350 degrees) at 2 MPH (2 KT):0
Visibility: 10 mile(s):0
Sky conditions: mostly clear
Temperature: 61.7 F (16.5 C)
Dew Point: 42.4 F (5.8 C)
Relative Humidity: 49%
Pressure (altimeter): 29.83 in. Hg (1010 hPa)
Pressure tendency: 0.02 inches (0.7 hPa) lower than three hours ago
ob: KLSV 250855Z 35002KT 10SM FEW110 17/06 A2983 RMK A02A SLP077 WND DATA ESTMD T01650058 57007
cycle: 9

Station Type Date Time Source
KLSV TAF 2019/05/25 07:59 UTC NOAA

TAF KLSV 250700Z 2507/2613 VRB06KT 9999 FEW100 QNH2982INS
BECMG 2517/2518 15010G15KT 9999 FEW080 SCT120 QNH2976INS
TEMPO 2521/2602 18015G25KT 520009
BECMG 2603/2604 VRB06KT 9999 FEW100 QNH2969INS TX26/2522Z TN16/2511Z

Example: see airport list